Apopka, Florida
Current Conditions -  °F | °C
As of 7:53 PM on Tuesday 21 Oct 2014 (Local Time) from KORL Reporting Station
Clear Clear  
Wind Chill: 76°   Ceiling: Unl
Heat Index: 76°   Visibility: 10mi
Dew Point: 72°   Wind: 7mph
Humidity: 87%   Direction: 90°E
Pressure: 29.94"   Gusts: NA
Location:  28.67°N, 81.51°W
Report Text: KORL 212353Z 09006KT 10SM CLR 24/22 A2994 RMK AO2 SLP141 T02440222 10294 20244 53010
Loading
Personal Weather Stations






























Interactive Weather Map New forecast layout! Learn more

10-Day Weather Forecast

Advertisements
Track Severe Weather on mobile